Time;durP1;ratioP1;P1;durP2;ratioP2;P2;SDS_P1;SDS_P2;PMS_P1;PMS_P2;Temp;Humidity;BMP_temperature;BMP_pressure;BME280_temperature;BME280_humidity;BME280_pressure;Samples;Min_cycle;Max_cycle;Signal;HPM_P1;HPM_P2
2021/08/17 00:00:09;;;;;;;;;;;15.20;99.90;;;;;;1915621;75;20208;-69
2021/08/17 00:02:36;;;;;;;;;;;15.20;99.90;;;;;;1895568;75;20471;-69
2021/08/17 00:05:04;;;;;;;;;;;15.20;99.90;;;;;;1905349;75;20138;-69
2021/08/17 00:07:30;;;;;;;;;;;15.20;99.90;;;;;;1907467;75;20172;-69
2021/08/17 00:09:57;;;;;;;;;;;15.20;99.90;;;;;;1902516;75;20165;-69
2021/08/17 00:12:25;;;;;;;;;;;15.20;99.90;;;;;;1909938;75;20179;-69
2021/08/17 00:14:52;;;;;;;;;;;15.30;99.90;;;;;;1901224;75;20176;-69
2021/08/17 00:17:19;;;;;;;;;;;15.20;99.90;;;;;;1910089;75;20125;-70
2021/08/17 00:19:46;;;;;;;;;;;15.20;99.90;;;;;;1899281;75;20187;-69
2021/08/17 00:22:14;;;;;;;;;;;15.20;99.90;;;;;;1916579;75;20162;-69
2021/08/17 00:24:40;;;;;;;;;;;15.20;99.90;;;;;;1909909;74;20239;-69
2021/08/17 00:27:07;;;;;;;;;;;15.20;99.90;;;;;;1911395;75;20106;-69
2021/08/17 00:29:34;;;;;;;;;;;15.20;99.90;;;;;;1923788;74;20192;-69
2021/08/17 00:32:01;;;;;;;;;;;15.20;99.90;;;;;;1913014;75;20191;-69
2021/08/17 00:34:28;;;;;;;;;;;15.20;99.90;;;;;;1924995;74;20124;-69
2021/08/17 00:36:56;;;;;;;;;;;15.10;99.90;;;;;;1936223;74;20190;-69
2021/08/17 00:39:23;;;;;;;;;;;15.10;99.90;;;;;;1914702;74;20170;-69
2021/08/17 00:41:50;;;;;;;;;;;15.10;99.90;;;;;;1903860;75;20195;-69
2021/08/17 00:44:21;;;;;;;;;;;15.10;99.90;;;;;;1909857;75;20219;-68
2021/08/17 00:46:48;;;;;;;;;;;15.20;99.90;;;;;;1914387;75;20148;-69
2021/08/17 00:49:15;;;;;;;;;;;15.20;99.90;;;;;;1905746;75;20411;-69
2021/08/17 00:51:41;;;;;;;;;;;15.10;99.90;;;;;;1917341;75;20195;-69
2021/08/17 00:54:08;;;;;;;;;;;15.10;99.90;;;;;;1917754;75;20412;-69
2021/08/17 00:56:35;;;;;;;;;;;15.10;99.90;;;;;;1917599;75;20148;-69
2021/08/17 00:59:02;;;;;;;;;;;15.20;99.90;;;;;;1917693;75;20180;-69
2021/08/17 01:01:29;;;;;;;;;;;15.20;99.90;;;;;;1917698;75;20456;-69
2021/08/17 01:03:56;;;;;;;;;;;15.30;99.90;;;;;;1917839;75;20177;-69
2021/08/17 01:06:23;;;;;;;;;;;15.20;99.90;;;;;;1918276;75;20189;-69
2021/08/17 01:08:50;;;;;;;;;;;15.20;99.90;;;;;;1917868;75;20176;-69
2021/08/17 01:11:17;;;;;;;;;;;15.20;99.90;;;;;;1917801;75;20158;-68
2021/08/17 01:13:44;;;;;;;;;;;15.30;99.90;;;;;;1916761;75;20196;-69
2021/08/17 01:16:11;;;;;;;;;;;15.30;99.90;;;;;;1917609;74;20181;-69
2021/08/17 01:18:38;;;;;;;;;;;15.30;99.90;;;;;;1917550;75;20145;-69
2021/08/17 01:21:08;;;;;;;;;;;15.20;99.90;;;;;;1910702;75;20177;-69
2021/08/17 01:23:33;;;;;;;;;;;15.20;99.90;;;;;;1910646;74;20110;-69
2021/08/17 01:26:00;;;;;;;;;;;15.30;99.90;;;;;;1903110;75;20156;-69
2021/08/17 01:28:27;;;;;;;;;;;15.30;99.90;;;;;;1903157;75;20160;-69
2021/08/17 01:31:04;;;;;;;;;;;15.30;99.90;;;;;;1928911;74;20150;-68
2021/08/17 01:33:31;;;;;;;;;;;15.30;99.90;;;;;;1921316;74;20229;-69
2021/08/17 01:35:58;;;;;;;;;;;15.30;99.90;;;;;;1934681;74;20121;-69
2021/08/17 01:38:25;;;;;;;;;;;15.30;99.90;;;;;;1936990;74;20183;-69
2021/08/17 01:40:51;;;;;;;;;;;15.30;99.90;;;;;;1928457;74;20127;-69
2021/08/17 01:43:18;;;;;;;;;;;15.30;99.90;;;;;;1921754;74;20129;-69
2021/08/17 01:45:47;;;;;;;;;;;15.30;99.90;;;;;;1925954;74;20184;-69
2021/08/17 01:48:14;;;;;;;;;;;15.20;99.90;;;;;;1945281;73;20151;-69
2021/08/17 01:50:40;;;;;;;;;;;15.20;99.90;;;;;;1962763;73;20198;-68
2021/08/17 01:53:07;;;;;;;;;;;15.20;99.90;;;;;;1943516;73;20172;-69
2021/08/17 01:55:34;;;;;;;;;;;15.20;99.90;;;;;;1926916;74;20125;-69
2021/08/17 01:58:04;;;;;;;;;;;15.20;99.90;;;;;;1936830;74;20199;-68
2021/08/17 02:00:30;;;;;;;;;;;15.10;99.90;;;;;;1930930;74;20117;-69
2021/08/17 02:02:57;;;;;;;;;;;15.20;99.90;;;;;;1928396;74;20164;-69
2021/08/17 02:05:25;;;;;;;;;;;15.10;99.90;;;;;;1935643;74;20195;-69
2021/08/17 02:07:53;;;;;;;;;;;15.10;99.90;;;;;;1925281;74;20818;-69
2021/08/17 02:10:20;;;;;;;;;;;15.10;99.90;;;;;;1923769;74;20258;-68
2021/08/17 02:12:47;;;;;;;;;;;15.10;99.90;;;;;;1925412;74;20403;-69
2021/08/17 02:15:14;;;;;;;;;;;15.10;99.90;;;;;;1935596;74;20194;-69
2021/08/17 02:17:41;;;;;;;;;;;15.10;99.90;;;;;;1933758;74;20131;-69
2021/08/17 02:20:08;;;;;;;;;;;15.10;99.90;;;;;;1920576;74;20156;-68
2021/08/17 02:22:34;;;;;;;;;;;15.10;99.90;;;;;;1929670;74;20157;-69
2021/08/17 02:25:01;;;;;;;;;;;15.10;99.90;;;;;;1960989;73;20433;-68
2021/08/17 02:27:30;;;;;;;;;;;15.10;99.90;;;;;;1958867;73;20185;-68
2021/08/17 02:29:56;;;;;;;;;;;15.10;99.90;;;;;;1936823;74;20453;-68
2021/08/17 02:32:23;;;;;;;;;;;15.10;99.90;;;;;;1921535;74;20219;-69
2021/08/17 02:34:50;;;;;;;;;;;15.10;99.90;;;;;;1929490;74;21038;-68
2021/08/17 02:37:17;;;;;;;;;;;15.10;99.90;;;;;;1937126;74;20202;-68
2021/08/17 02:39:43;;;;;;;;;;;15.10;99.90;;;;;;1940903;73;20163;-69
2021/08/17 02:42:10;;;;;;;;;;;15.10;99.90;;;;;;1951255;73;20152;-69
2021/08/17 02:44:37;;;;;;;;;;;15.10;99.90;;;;;;1933727;74;20168;-68
2021/08/17 02:47:04;;;;;;;;;;;15.10;99.90;;;;;;1956439;73;20108;-69
2021/08/17 02:49:32;;;;;;;;;;;15.10;99.90;;;;;;1963327;73;20223;-68
2021/08/17 02:52:06;;;;;;;;;;;15.10;99.90;;;;;;1912748;74;20278;-68
2021/08/17 02:54:33;;;;;;;;;;;15.00;99.90;;;;;;1937084;74;20191;-68
2021/08/17 02:57:00;;;;;;;;;;;15.00;99.90;;;;;;1936964;74;20121;-69
2021/08/17 02:59:27;;;;;;;;;;;15.00;99.90;;;;;;1937164;74;20865;-68
2021/08/17 03:01:54;;;;;;;;;;;15.00;99.90;;;;;;1936677;74;20180;-68
2021/08/17 03:04:20;;;;;;;;;;;15.10;99.90;;;;;;1937054;74;20141;-69
2021/08/17 03:06:47;;;;;;;;;;;15.00;99.90;;;;;;1927900;74;20141;-69
2021/08/17 03:09:14;;;;;;;;;;;14.90;99.90;;;;;;1929801;74;20172;-69
2021/08/17 03:11:41;;;;;;;;;;;15.00;99.90;;;;;;1929117;74;20124;-69
2021/08/17 03:14:08;;;;;;;;;;;15.00;99.90;;;;;;1924122;74;20188;-69
2021/08/17 03:16:35;;;;;;;;;;;15.00;99.90;;;;;;1916182;74;20498;-69
2021/08/17 03:19:02;;;;;;;;;;;15.00;99.90;;;;;;1936978;74;20230;-68
2021/08/17 03:21:29;;;;;;;;;;;14.90;99.90;;;;;;1926685;74;20434;-68
2021/08/17 03:23:56;;;;;;;;;;;14.90;99.90;;;;;;1931133;74;20169;-68
2021/08/17 03:26:23;;;;;;;;;;;14.90;99.90;;;;;;1929791;74;20424;-68
2021/08/17 03:28:50;;;;;;;;;;;14.90;99.90;;;;;;1920353;74;20132;-68
2021/08/17 03:31:16;;;;;;;;;;;14.90;99.90;;;;;;1907875;74;20184;-68
2021/08/17 03:33:43;;;;;;;;;;;15.00;99.90;;;;;;1921856;74;20402;-68
2021/08/17 03:36:10;;;;;;;;;;;14.90;99.90;;;;;;1913548;74;20366;-69
2021/08/17 03:38:37;;;;;;;;;;;15.00;99.90;;;;;;1925006;74;20473;-69
2021/08/17 03:41:04;;;;;;;;;;;15.00;99.90;;;;;;1911958;74;20107;-68
2021/08/17 03:43:32;;;;;;;;;;;15.00;99.90;;;;;;1930374;74;20215;-68
2021/08/17 03:45:59;;;;;;;;;;;15.00;99.90;;;;;;1933937;74;20191;-68
2021/08/17 03:48:26;;;;;;;;;;;14.90;99.90;;;;;;1939982;73;20327;-68
2021/08/17 03:50:53;;;;;;;;;;;14.90;99.90;;;;;;1936518;74;20199;-68
2021/08/17 03:53:19;;;;;;;;;;;15.00;99.90;;;;;;1937147;74;20177;-68
2021/08/17 03:55:46;;;;;;;;;;;14.90;99.90;;;;;;1936962;74;20157;-68
2021/08/17 03:58:13;;;;;;;;;;;14.80;99.90;;;;;;1925290;74;20164;-69
2021/08/17 04:00:40;;;;;;;;;;;14.80;99.90;;;;;;1928309;74;20169;-68
2021/08/17 04:03:07;;;;;;;;;;;14.90;99.90;;;;;;1945716;73;20149;-68
2021/08/17 04:05:34;;;;;;;;;;;14.90;99.90;;;;;;1959899;73;20170;-68
2021/08/17 04:08:02;;;;;;;;;;;14.90;99.90;;;;;;1932998;74;20210;-69
2021/08/17 04:10:29;;;;;;;;;;;14.90;99.90;;;;;;1931105;74;20113;-69
2021/08/17 04:12:56;;;;;;;;;;;14.80;99.90;;;;;;1935587;74;20164;-69
2021/08/17 04:15:22;;;;;;;;;;;14.90;99.90;;;;;;1926053;74;20116;-69
2021/08/17 04:17:49;;;;;;;;;;;14.90;99.90;;;;;;1930180;73;20181;-68
2021/08/17 04:20:16;;;;;;;;;;;14.80;99.90;;;;;;1926788;74;20165;-67
2021/08/17 04:22:43;;;;;;;;;;;14.90;99.90;;;;;;1930549;74;20419;-68
2021/08/17 04:25:10;;;;;;;;;;;14.80;99.90;;;;;;1931034;73;20180;-68
2021/08/17 04:27:37;;;;;;;;;;;14.80;99.90;;;;;;1924754;74;20242;-68
2021/08/17 04:30:04;;;;;;;;;;;14.80;99.90;;;;;;1929332;74;20841;-68
2021/08/17 04:32:31;;;;;;;;;;;14.80;99.90;;;;;;1927015;74;20839;-68
2021/08/17 04:34:58;;;;;;;;;;;14.70;99.90;;;;;;1926495;74;20230;-68
2021/08/17 04:37:25;;;;;;;;;;;14.80;99.90;;;;;;1921165;74;20509;-68
2021/08/17 04:39:52;;;;;;;;;;;14.70;99.90;;;;;;1923340;74;20214;-68
2021/08/17 04:42:18;;;;;;;;;;;14.70;99.90;;;;;;1916338;74;20640;-68
2021/08/17 04:44:45;;;;;;;;;;;14.60;99.90;;;;;;1915042;74;20182;-68
2021/08/17 04:47:12;;;;;;;;;;;14.50;99.90;;;;;;1917648;74;20118;-69
2021/08/17 04:49:39;;;;;;;;;;;14.50;99.90;;;;;;1932880;74;20180;-68
2021/08/17 04:52:06;;;;;;;;;;;14.50;99.90;;;;;;1928904;74;20125;-68
2021/08/17 04:54:32;;;;;;;;;;;14.50;99.90;;;;;;1922821;74;20469;-68
2021/08/17 04:56:59;;;;;;;;;;;14.60;99.90;;;;;;1929478;74;20165;-69
2021/08/17 04:59:26;;;;;;;;;;;14.60;99.90;;;;;;1936837;74;20428;-69
2021/08/17 05:01:53;;;;;;;;;;;14.60;99.90;;;;;;1935929;74;20157;-69
2021/08/17 05:04:20;;;;;;;;;;;14.50;99.90;;;;;;1931782;74;20192;-69
2021/08/17 05:06:46;;;;;;;;;;;14.50;99.90;;;;;;1928774;74;20227;-70
2021/08/17 05:09:13;;;;;;;;;;;14.60;99.90;;;;;;1941428;73;20186;-68
2021/08/17 05:11:40;;;;;;;;;;;14.50;99.90;;;;;;1962818;73;20171;-69
2021/08/17 05:14:07;;;;;;;;;;;14.50;99.90;;;;;;1960510;73;20186;-68
2021/08/17 05:16:35;;;;;;;;;;;14.50;99.90;;;;;;1937736;71;20202;-71
2021/08/17 05:19:01;;;;;;;;;;;14.50;99.90;;;;;;1887431;76;20495;-69
2021/08/17 05:21:28;;;;;;;;;;;14.50;99.90;;;;;;1889725;76;20211;-69
2021/08/17 05:23:56;;;;;;;;;;;14.50;99.90;;;;;;1891477;76;20116;-70
2021/08/17 05:26:24;;;;;;;;;;;14.50;99.90;;;;;;1901393;75;20150;-70
2021/08/17 05:28:50;;;;;;;;;;;14.50;99.90;;;;;;1892826;75;20159;-70
2021/08/17 05:31:17;;;;;;;;;;;14.50;99.90;;;;;;1906426;75;20168;-70
2021/08/17 05:33:44;;;;;;;;;;;14.50;99.90;;;;;;1909428;75;20167;-69
2021/08/17 05:36:11;;;;;;;;;;;14.40;99.90;;;;;;1923567;74;20219;-71
2021/08/17 05:38:38;;;;;;;;;;;14.40;99.90;;;;;;1923019;75;20161;-70
2021/08/17 05:41:04;;;;;;;;;;;14.50;99.90;;;;;;1921984;75;20169;-70
2021/08/17 05:43:31;;;;;;;;;;;14.40;99.90;;;;;;1924434;75;20110;-69
2021/08/17 05:46:02;;;;;;;;;;;14.50;99.90;;;;;;1894517;75;20171;-69
2021/08/17 05:48:27;;;;;;;;;;;14.40;99.90;;;;;;1892602;75;20200;-70
2021/08/17 05:50:53;;;;;;;;;;;14.50;99.90;;;;;;1919361;75;20457;-71
2021/08/17 05:53:20;;;;;;;;;;;14.50;99.90;;;;;;1917406;75;20181;-70
2021/08/17 05:55:47;;;;;;;;;;;14.50;99.90;;;;;;1920704;75;20454;-71
2021/08/17 05:58:14;;;;;;;;;;;14.50;99.90;;;;;;1920342;75;20125;-70
2021/08/17 06:00:40;;;;;;;;;;;14.60;99.90;;;;;;1905591;75;20527;-69
2021/08/17 06:03:07;;;;;;;;;;;14.50;99.90;;;;;;1916833;73;20176;-70
2021/08/17 06:05:34;;;;;;;;;;;14.60;99.90;;;;;;1907115;74;20124;-73
2021/08/17 06:08:01;;;;;;;;;;;14.60;99.90;;;;;;1919606;75;20184;-72
2021/08/17 06:10:28;;;;;;;;;;;14.60;99.90;;;;;;1898735;75;20171;-70
2021/08/17 06:12:55;;;;;;;;;;;14.70;99.90;;;;;;1909979;74;20260;-69
2021/08/17 06:15:22;;;;;;;;;;;14.70;99.90;;;;;;1920550;74;20235;-68
2021/08/17 06:17:49;;;;;;;;;;;14.70;99.90;;;;;;1920404;74;20161;-69
2021/08/17 06:20:16;;;;;;;;;;;14.70;99.90;;;;;;1920782;75;20211;-70
2021/08/17 06:22:43;;;;;;;;;;;14.80;99.90;;;;;;1920712;74;20406;-69
2021/08/17 06:25:10;;;;;;;;;;;14.80;99.90;;;;;;1922442;75;20191;-69
2021/08/17 06:27:37;;;;;;;;;;;14.80;99.90;;;;;;1918954;74;20163;-69
2021/08/17 06:30:05;;;;;;;;;;;14.90;99.90;;;;;;1910580;74;20180;-70
2021/08/17 06:32:34;;;;;;;;;;;14.90;99.90;;;;;;1912736;74;20215;-70
2021/08/17 06:35:01;;;;;;;;;;;15.00;99.90;;;;;;1900721;74;20207;-70
2021/08/17 06:37:28;;;;;;;;;;;15.00;99.90;;;;;;1914887;74;20145;-70
2021/08/17 06:39:55;;;;;;;;;;;15.00;99.90;;;;;;1914299;75;20232;-70
2021/08/17 06:42:21;;;;;;;;;;;15.00;99.90;;;;;;1919999;74;20154;-70
2021/08/17 06:44:48;;;;;;;;;;;15.00;99.90;;;;;;1914026;74;20177;-71
2021/08/17 06:47:15;;;;;;;;;;;15.10;99.90;;;;;;1921820;75;20110;-71
2021/08/17 06:49:42;;;;;;;;;;;15.00;99.90;;;;;;1921014;75;20102;-72
2021/08/17 06:52:09;;;;;;;;;;;15.00;99.90;;;;;;1922611;75;20450;-72
2021/08/17 06:54:35;;;;;;;;;;;15.10;99.90;;;;;;1916490;74;20131;-71
2021/08/17 06:57:02;;;;;;;;;;;15.10;99.90;;;;;;1907834;74;20221;-71
2021/08/17 06:59:29;;;;;;;;;;;15.10;99.90;;;;;;1915581;75;20205;-72
2021/08/17 07:01:56;;;;;;;;;;;15.20;99.90;;;;;;1917858;74;20458;-70
2021/08/17 07:04:23;;;;;;;;;;;15.20;99.90;;;;;;1914160;75;20632;-71
2021/08/17 07:06:50;;;;;;;;;;;15.20;99.90;;;;;;1909919;73;20555;-71
2021/08/17 07:09:16;;;;;;;;;;;15.20;99.90;;;;;;1907185;73;20125;-73
2021/08/17 07:11:43;;;;;;;;;;;15.20;99.90;;;;;;1912985;73;20158;-74
2021/08/17 07:14:10;;;;;;;;;;;15.30;99.90;;;;;;1914415;74;20128;-71
2021/08/17 07:16:37;;;;;;;;;;;15.20;99.90;;;;;;1917132;74;20164;-72
2021/08/17 07:19:04;;;;;;;;;;;15.30;99.90;;;;;;1914922;74;20211;-71
2021/08/17 07:21:31;;;;;;;;;;;15.20;99.90;;;;;;1911256;74;20179;-73
2021/08/17 07:23:57;;;;;;;;;;;15.30;99.90;;;;;;1916783;75;20208;-72
2021/08/17 07:26:24;;;;;;;;;;;15.30;99.90;;;;;;1913708;74;20208;-71
2021/08/17 07:28:51;;;;;;;;;;;15.40;99.90;;;;;;1918650;75;20208;-71
2021/08/17 07:31:18;;;;;;;;;;;15.40;99.90;;;;;;1917769;73;20148;-71
2021/08/17 07:33:45;;;;;;;;;;;15.40;99.90;;;;;;1917573;74;20118;-71
2021/08/17 07:36:11;;;;;;;;;;;15.40;99.90;;;;;;1915435;74;20149;-72
2021/08/17 07:38:38;;;;;;;;;;;15.40;99.90;;;;;;1914424;74;20298;-72
2021/08/17 07:41:05;;;;;;;;;;;15.40;99.90;;;;;;1908902;73;20224;-71
2021/08/17 07:43:32;;;;;;;;;;;15.40;99.90;;;;;;1915119;73;20157;-72
2021/08/17 07:45:59;;;;;;;;;;;15.50;99.90;;;;;;1911506;74;20206;-71
2021/08/17 07:48:25;;;;;;;;;;;15.50;99.90;;;;;;1908253;74;20121;-71
2021/08/17 07:50:52;;;;;;;;;;;15.50;99.90;;;;;;1911582;75;20133;-72
2021/08/17 07:53:19;;;;;;;;;;;15.50;99.90;;;;;;1912899;74;20173;-72
2021/08/17 07:55:46;;;;;;;;;;;15.60;99.90;;;;;;1911055;74;20193;-74
2021/08/17 07:58:13;;;;;;;;;;;15.60;99.90;;;;;;1917201;74;20173;-72
2021/08/17 08:00:39;;;;;;;;;;;15.70;99.90;;;;;;1909857;74;20209;-74
2021/08/17 08:03:06;;;;;;;;;;;15.70;99.90;;;;;;1913863;74;20173;-72
2021/08/17 08:05:33;;;;;;;;;;;15.80;99.90;;;;;;1914910;75;20267;-73
2021/08/17 08:08:00;;;;;;;;;;;15.90;99.90;;;;;;1913960;74;20122;-70
2021/08/17 08:10:27;;;;;;;;;;;15.90;99.90;;;;;;1922938;74;20217;-71
2021/08/17 08:12:53;;;;;;;;;;;16.00;99.90;;;;;;1923030;74;20213;-71
2021/08/17 08:15:20;;;;;;;;;;;16.00;99.90;;;;;;1923455;75;20180;-71
2021/08/17 08:17:47;;;;;;;;;;;16.00;99.90;;;;;;1903396;74;20167;-71
2021/08/17 08:20:14;;;;;;;;;;;16.10;99.90;;;;;;1922096;73;20174;-74
2021/08/17 08:22:41;;;;;;;;;;;16.10;99.90;;;;;;1905451;75;20839;-73
2021/08/17 08:25:08;;;;;;;;;;;16.20;99.90;;;;;;1905256;73;20207;-71
2021/08/17 08:27:36;;;;;;;;;;;16.20;99.90;;;;;;1922449;74;20106;-72
2021/08/17 08:30:03;;;;;;;;;;;16.20;99.90;;;;;;1919382;73;20437;-70
2021/08/17 08:32:30;;;;;;;;;;;16.20;99.90;;;;;;1913323;75;20171;-71
2021/08/17 08:34:57;;;;;;;;;;;16.30;99.90;;;;;;1912173;74;20148;-71
2021/08/17 08:37:24;;;;;;;;;;;16.30;99.90;;;;;;1901720;74;20181;-72
2021/08/17 08:39:52;;;;;;;;;;;16.30;99.90;;;;;;1923338;75;20165;-71
2021/08/17 08:42:20;;;;;;;;;;;16.30;99.90;;;;;;1912134;73;20161;-71
2021/08/17 08:44:47;;;;;;;;;;;16.40;99.90;;;;;;1910341;74;20218;-71
2021/08/17 08:47:14;;;;;;;;;;;16.50;99.90;;;;;;1897701;75;20138;-72
2021/08/17 08:49:42;;;;;;;;;;;16.50;99.90;;;;;;1913240;74;20165;-71
2021/08/17 08:52:08;;;;;;;;;;;16.60;99.90;;;;;;1901962;75;20169;-72
2021/08/17 08:54:35;;;;;;;;;;;16.60;99.90;;;;;;1919230;74;20189;-70
2021/08/17 08:57:02;;;;;;;;;;;16.60;99.90;;;;;;1910808;74;20176;-71
2021/08/17 08:59:29;;;;;;;;;;;16.50;99.90;;;;;;1915902;73;20231;-72
2021/08/17 09:02:06;;;;;;;;;;;16.50;99.90;;;;;;1906713;74;20126;-70
2021/08/17 09:04:33;;;;;;;;;;;16.50;99.90;;;;;;1913559;74;20216;-72
2021/08/17 09:07:00;;;;;;;;;;;16.50;99.90;;;;;;1913107;74;20209;-71
2021/08/17 09:09:27;;;;;;;;;;;16.50;99.90;;;;;;1913786;74;20173;-70
2021/08/17 09:11:56;;;;;;;;;;;16.50;99.90;;;;;;1909537;74;20197;-71
2021/08/17 09:14:27;;;;;;;;;;;16.50;99.90;;;;;;1914425;74;20152;-72
2021/08/17 09:16:55;;;;;;;;;;;16.50;99.90;;;;;;1909315;74;20153;-70
2021/08/17 09:19:41;;;;;;;;;;;16.50;99.90;;;;;;1912091;74;20600;-71
2021/08/17 09:22:16;;;;;;;;;;;16.50;99.90;;;;;;1915059;73;20168;-70
2021/08/17 09:24:44;;;;;;;;;;;16.50;99.90;;;;;;1910550;73;20156;-70
2021/08/17 09:27:17;;;;;;;;;;;16.60;99.90;;;;;;1914957;74;20253;-70
2021/08/17 09:29:46;;;;;;;;;;;16.60;99.90;;;;;;1912864;74;20224;-73
2021/08/17 09:32:14;;;;;;;;;;;16.60;99.90;;;;;;1912675;74;20213;-70
2021/08/17 09:34:42;;;;;;;;;;;16.60;99.90;;;;;;1910802;74;20200;-70
2021/08/17 09:37:11;;;;;;;;;;;16.70;99.90;;;;;;1908997;73;20232;-72
2021/08/17 09:39:44;;;;;;;;;;;16.70;99.90;;;;;;1913473;75;20125;-70
2021/08/17 09:42:15;;;;;;;;;;;16.70;99.90;;;;;;1913784;74;20441;-73
2021/08/17 09:44:42;;;;;;;;;;;16.60;99.90;;;;;;1914316;74;20228;-70
2021/08/17 09:47:09;;;;;;;;;;;16.50;99.90;;;;;;1920710;74;20180;-69
2021/08/17 09:49:36;;;;;;;;;;;16.40;99.90;;;;;;1906531;74;20239;-73
2021/08/17 09:52:07;;;;;;;;;;;16.40;99.90;;;;;;1914342;74;20486;-70
2021/08/17 09:54:36;;;;;;;;;;;16.40;99.90;;;;;;1908857;74;20143;-72
2021/08/17 09:57:04;;;;;;;;;;;16.50;99.90;;;;;;1853920;76;20212;-71
2021/08/17 09:59:32;;;;;;;;;;;16.50;99.90;;;;;;1888279;76;20337;-71
2021/08/17 10:01:59;;;;;;;;;;;16.50;99.90;;;;;;1879071;76;20119;-73
2021/08/17 10:04:26;;;;;;;;;;;16.60;99.90;;;;;;1883519;76;20122;-70
2021/08/17 10:06:54;;;;;;;;;;;16.70;99.90;;;;;;1880627;74;20474;-73
2021/08/17 10:09:22;;;;;;;;;;;16.80;99.90;;;;;;1883582;76;20163;-70
2021/08/17 10:11:49;;;;;;;;;;;16.90;99.90;;;;;;1885087;76;20167;-71
2021/08/17 10:14:16;;;;;;;;;;;16.90;99.90;;;;;;1915972;74;20170;-71
2021/08/17 10:16:44;;;;;;;;;;;17.00;99.90;;;;;;1912431;74;20199;-71
2021/08/17 10:19:12;;;;;;;;;;;16.90;99.90;;;;;;1909235;74;20228;-71
2021/08/17 10:21:40;;;;;;;;;;;16.90;99.90;;;;;;1912796;74;20261;-70
2021/08/17 10:24:26;;;;;;;;;;;16.90;99.90;;;;;;1914737;74;20133;-72
2021/08/17 10:27:07;;;;;;;;;;;16.70;99.90;;;;;;1921807;75;20121;-71
2021/08/17 10:29:33;;;;;;;;;;;16.60;99.90;;;;;;1857303;74;20189;-72
2021/08/17 10:32:00;;;;;;;;;;;16.40;99.90;;;;;;1890992;75;20184;-71
2021/08/17 10:34:37;;;;;;;;;;;16.30;99.90;;;;;;1922306;73;20119;-71
2021/08/17 10:37:14;;;;;;;;;;;16.20;99.90;;;;;;1921542;74;21082;-70
2021/08/17 10:39:41;;;;;;;;;;;16.20;99.90;;;;;;1873586;74;20157;-71
2021/08/17 10:42:21;;;;;;;;;;;16.20;99.90;;;;;;1903591;75;20163;-70
2021/08/17 10:44:48;;;;;;;;;;;16.10;99.90;;;;;;1920053;74;20177;-71
2021/08/17 10:47:16;;;;;;;;;;;16.10;99.90;;;;;;1908945;74;20501;-71
2021/08/17 10:49:47;;;;;;;;;;;16.20;99.90;;;;;;1912081;74;20150;-71
2021/08/17 10:52:28;;;;;;;;;;;16.30;99.90;;;;;;1904090;75;20226;-72
2021/08/17 10:54:59;;;;;;;;;;;16.40;99.90;;;;;;1922675;75;20173;-72
2021/08/17 10:57:26;;;;;;;;;;;16.50;99.90;;;;;;1887756;74;20144;-69
2021/08/17 10:59:53;;;;;;;;;;;16.70;99.90;;;;;;1901339;74;20232;-70
2021/08/17 11:02:23;;;;;;;;;;;16.90;99.90;;;;;;1913784;74;20180;-70
2021/08/17 11:04:50;;;;;;;;;;;17.00;99.90;;;;;;1914316;74;20117;-70
2021/08/17 11:07:25;;;;;;;;;;;17.20;99.90;;;;;;1913394;73;20214;-69
2021/08/17 11:09:52;;;;;;;;;;;17.30;99.90;;;;;;1918403;73;20209;-71
2021/08/17 11:12:19;;;;;;;;;;;17.30;99.90;;;;;;1907067;74;20227;-72
2021/08/17 11:14:47;;;;;;;;;;;17.20;99.90;;;;;;1913590;74;20195;-71
2021/08/17 11:17:15;;;;;;;;;;;17.20;99.90;;;;;;1915321;73;20467;-73
2021/08/17 11:19:45;;;;;;;;;;;17.20;99.90;;;;;;1888760;74;20437;-73
2021/08/17 11:22:13;;;;;;;;;;;17.10;99.90;;;;;;1892515;74;20280;-73
2021/08/17 11:24:41;;;;;;;;;;;17.00;99.90;;;;;;1897326;74;20464;-73
2021/08/17 11:27:15;;;;;;;;;;;17.00;99.90;;;;;;1856567;76;20198;-73
2021/08/17 11:29:43;;;;;;;;;;;17.00;99.90;;;;;;1871484;75;20170;-72
2021/08/17 11:32:12;;;;;;;;;;;17.00;99.90;;;;;;1887696;74;20183;-72
2021/08/17 11:34:40;;;;;;;;;;;16.90;99.90;;;;;;1872724;74;20182;-74
2021/08/17 11:37:08;;;;;;;;;;;16.90;99.90;;;;;;1889909;75;20465;-73
2021/08/17 11:39:43;;;;;;;;;;;16.80;99.90;;;;;;1870773;74;20225;-73
2021/08/17 11:42:11;;;;;;;;;;;16.80;99.90;;;;;;1879360;75;20215;-73
2021/08/17 11:44:38;;;;;;;;;;;16.80;99.90;;;;;;1886676;75;20132;-73
2021/08/17 11:47:06;;;;;;;;;;;16.80;99.90;;;;;;1888470;74;20186;-72
2021/08/17 11:49:33;;;;;;;;;;;16.80;99.90;;;;;;1853379;75;20164;-72
2021/08/17 11:52:02;;;;;;;;;;;16.80;99.90;;;;;;1862288;75;20162;-73
2021/08/17 11:54:29;;;;;;;;;;;16.80;99.90;;;;;;1884413;74;20211;-76
2021/08/17 11:56:56;;;;;;;;;;;16.80;99.90;;;;;;1850696;76;20236;-76
2021/08/17 11:59:25;;;;;;;;;;;16.80;99.90;;;;;;1849964;76;20506;-76
2021/08/17 12:02:01;;;;;;;;;;;16.80;99.90;;;;;;1883518;75;20217;-77
2021/08/17 12:04:28;;;;;;;;;;;16.80;99.90;;;;;;1852931;76;20235;-76
2021/08/17 12:07:11;;;;;;;;;;;16.80;99.90;;;;;;1869143;75;20125;-76
2021/08/17 12:09:39;;;;;;;;;;;16.80;99.90;;;;;;1884616;74;20195;-76
2021/08/17 12:12:07;;;;;;;;;;;16.90;99.90;;;;;;1885187;74;20240;-76
2021/08/17 12:14:34;;;;;;;;;;;16.90;99.90;;;;;;1884492;74;20190;-76
2021/08/17 12:17:01;;;;;;;;;;;16.90;99.90;;;;;;1883410;74;20258;-76
2021/08/17 12:19:28;;;;;;;;;;;17.00;99.90;;;;;;1882036;75;20234;-75
2021/08/17 12:21:56;;;;;;;;;;;17.00;99.90;;;;;;1882936;75;20398;-74
2021/08/17 12:24:29;;;;;;;;;;;17.00;99.90;;;;;;1884689;75;20226;-74
2021/08/17 12:26:54;;;;;;;;;;;17.00;99.90;;;;;;1883388;75;20389;-74
2021/08/17 12:29:24;;;;;;;;;;;17.00;99.90;;;;;;1883185;75;20131;-76
2021/08/17 12:31:52;;;;;;;;;;;17.00;99.90;;;;;;1884789;75;20205;-76
2021/08/17 12:34:19;;;;;;;;;;;17.00;99.90;;;;;;1882170;75;20214;-75
2021/08/17 12:36:47;;;;;;;;;;;17.00;99.90;;;;;;1883421;75;20216;-75
2021/08/17 12:39:16;;;;;;;;;;;17.00;99.90;;;;;;1881167;75;20250;-75
2021/08/17 12:41:53;;;;;;;;;;;17.00;99.90;;;;;;1881682;75;20502;-75
2021/08/17 12:44:21;;;;;;;;;;;17.00;99.90;;;;;;1884399;75;20167;-75
2021/08/17 12:46:57;;;;;;;;;;;16.90;99.90;;;;;;1883853;75;20124;-74
2021/08/17 12:49:26;;;;;;;;;;;16.90;99.90;;;;;;1879855;75;20255;-75
2021/08/17 12:51:53;;;;;;;;;;;16.90;99.90;;;;;;1879087;75;20213;-75
2021/08/17 12:54:19;;;;;;;;;;;16.90;99.90;;;;;;1883984;75;20198;-75
2021/08/17 12:56:46;;;;;;;;;;;16.90;99.90;;;;;;1895647;75;20146;-76
2021/08/17 12:59:13;;;;;;;;;;;16.90;99.90;;;;;;1884667;76;20230;-75
2021/08/17 13:01:40;;;;;;;;;;;17.00;99.90;;;;;;1883473;75;20135;-76
2021/08/17 13:04:06;;;;;;;;;;;17.00;99.90;;;;;;1881184;75;20163;-75
2021/08/17 13:06:33;;;;;;;;;;;17.10;99.90;;;;;;1884267;75;20502;-75
2021/08/17 13:09:00;;;;;;;;;;;17.10;99.90;;;;;;1885244;75;20116;-75
2021/08/17 13:11:27;;;;;;;;;;;17.30;99.90;;;;;;1883529;75;20727;-75
2021/08/17 13:13:54;;;;;;;;;;;17.30;99.90;;;;;;1881327;75;20239;-75
2021/08/17 13:16:20;;;;;;;;;;;17.30;99.90;;;;;;1885054;75;20435;-75
2021/08/17 13:18:47;;;;;;;;;;;17.30;99.90;;;;;;1883260;75;20171;-75
2021/08/17 13:21:15;;;;;;;;;;;17.30;99.90;;;;;;1882751;75;20517;-74
2021/08/17 13:23:42;;;;;;;;;;;17.30;99.90;;;;;;1883549;75;20238;-75
2021/08/17 13:26:09;;;;;;;;;;;17.30;99.90;;;;;;1883271;75;20189;-75
2021/08/17 13:28:35;;;;;;;;;;;17.30;99.90;;;;;;1884161;75;20183;-75
2021/08/17 13:31:02;;;;;;;;;;;17.30;99.90;;;;;;1881736;75;20169;-73
2021/08/17 13:33:29;;;;;;;;;;;17.30;99.90;;;;;;1880328;75;20225;-73
2021/08/17 13:35:56;;;;;;;;;;;17.30;99.90;;;;;;1882074;75;20538;-73
2021/08/17 13:38:23;;;;;;;;;;;17.30;99.90;;;;;;1885850;75;20221;-73
2021/08/17 13:40:49;;;;;;;;;;;17.30;99.90;;;;;;1885312;75;20187;-73
2021/08/17 13:43:16;;;;;;;;;;;17.40;99.90;;;;;;1883931;75;20179;-73
2021/08/17 13:45:43;;;;;;;;;;;17.40;99.90;;;;;;1884781;75;20280;-72
2021/08/17 13:48:11;;;;;;;;;;;17.30;99.90;;;;;;1883384;75;20773;-71
2021/08/17 13:50:38;;;;;;;;;;;17.30;99.90;;;;;;1885336;75;20178;-72
2021/08/17 13:53:05;;;;;;;;;;;17.30;99.90;;;;;;1881322;75;20232;-72
2021/08/17 13:55:31;;;;;;;;;;;17.30;99.90;;;;;;1884482;75;20175;-73
2021/08/17 13:57:58;;;;;;;;;;;17.30;99.90;;;;;;1883404;75;20218;-74
2021/08/17 14:00:25;;;;;;;;;;;17.40;99.90;;;;;;1882353;75;20265;-74
2021/08/17 14:02:54;;;;;;;;;;;17.30;99.90;;;;;;1883484;75;20113;-74
2021/08/17 14:05:20;;;;;;;;;;;17.40;99.90;;;;;;1878172;74;20207;-73
2021/08/17 14:07:47;;;;;;;;;;;17.40;99.90;;;;;;1884305;75;20187;-73
2021/08/17 14:10:14;;;;;;;;;;;17.40;99.90;;;;;;1878298;75;20180;-73
2021/08/17 14:12:41;;;;;;;;;;;17.40;99.90;;;;;;1883423;75;20232;-74
2021/08/17 14:15:08;;;;;;;;;;;17.40;99.90;;;;;;1885766;75;20221;-79
2021/08/17 14:17:34;;;;;;;;;;;17.50;99.90;;;;;;1881752;75;20237;-71